Terminal Aerodrome Forecast
Issued by NWS

Home | Current Version | Previous Version | Text Only | Print | Product List | Glossary On
Versions: 1 2 3 4 5 6 7 8 9 10 11 12 13 14 15 16 17 18 19 20 21 22 23 24
000
FTUS46 KMTR 192333
TAFSFO
TAF
KSFO 192333Z 2000/2106 24012KT P6SM VCSH FEW025 BKN040
     FM200300 20007KT P6SM VCSH BKN030 OVC050
     FM200600 17007KT P6SM -RA BKN020 OVC050
     FM200700 16012G18KT 5SM -RA BKN020 OVC035
     FM201000 14023G31KT 5SM -RA OVC020
      TEMPO 2012/2016 3SM RA OVC015
     FM201600 23018G30KT 5SM -RA OVC015
     FM202000 25023G32KT P6SM SHRA BKN020 OVC050
     FM210200 25022G30KT P6SM -SHRA BKN015 OVC040=

USA.gov is the U.S. government's official web portal to all federal, state and local government web resources and services.